KPAOKTVL

Guest
Details From KPAO - Palo Alto
To KTVL - South Lake Tahoe
Flight Number -
Tags generated
Created
Modified
Stats Distance 132 nm / 244 km
Max Altitude 13,400 ft / 4,084 m
Waypoints 3
Social Downloads 1
Likes 0
Share VATSIM

Download

Looking for another format? Having issues loading an existing format? Contact us
Advertisement - Login to hide

Notes

Basic altitude profile: - Ascent Rate: 2500ft/min - Ascent Speed: 250kts - Cruise Altitude: 35000ft - Cruise Speed: 420kts - Descent Rate: 1500ft/min - Descent Speed: 250kts Options: - Use NATs: yes - Use PACOTS: yes - Use low airways: yes - Use high airways: no

Route

KPAO HAIRE KTVL

ID Type Via Altitude (ft/m) Position (lat/lon) Dist (leg/tot) Name
O KPAO APT - 0 / 0 37.46089 / -122.11482 - / 0 nm Palo Alto
HAIRE FIX - 13,400 / 4,084 37.90714 / -121.48038 40 / 40 nm
O KTVL APT - 0 / 0 38.89388 / -119.99533 91 / 131 nm South Lake Tahoe

Altitude Profile

Advertisement - Login to hide

KPAO

Details ICAO KPAO (PAO)
Name Palo Alto
Region United States
Timezone America/Los_Angeles (UTC-7.0)
Stats Elevation 1 ft / 0 m (AMSL)
Location 37.460900° -122.115000°
Runways 1
Magnetic Variation 13.309° E

METAR

KPAO 180147Z 33012KT 10SM SKC 16/13 A3005

Decode

TAF

Not found

Departure Runways

ID Width Length Bearing (true/mag) Surface Threshold Overrun Markings Lighting
13 75 ft / 23 m 2,662 ft / 811 m 141.69° / 128.38° ASPHALT 0 ft / 0 m 236 ft / 72 m APP EDGE THRESHOLD REIL-UNI
31 75 ft / 23 m 2,662 ft / 811 m 321.70° / 308.39° ASPHALT 203 ft / 62 m 0 ft / 0 m APP EDGE THRESHOLD REIL-UNI

KTVL

Details ICAO KTVL (TVL)
Name South Lake Tahoe
Region United States
Timezone America/Los_Angeles (UTC-7.0)
Stats Elevation 6,264 ft / 1,909 m (AMSL)
Location 38.893900° -119.995000°
Runways 1
Magnetic Variation 13.240° E

METAR

KTVL 180153Z AUTO 18003KT 10SM CLR 07/M03 A3023 RMK AO2 SLP232 T00721033

Decode

TAF

KTVL 172327Z 1800/1824 VRB04KT P6SM SKC FM181900 04006KT P6SM SKC

Decode

Destination Runways

ID Width Length Bearing (true/mag) Surface Threshold Overrun Markings Lighting
18 150 ft / 46 m 8,556 ft / 2,608 m 192.88° / 179.64° ASPHALT 0 ft / 0 m 0 ft / 0 m APP EDGE THRESHOLD MALS
36 150 ft / 46 m 8,556 ft / 2,608 m 12.88° / 359.64° ASPHALT 2,037 ft / 621 m 0 ft / 0 m APP EDGE THRESHOLD REIL-OMNI

Approach Navaids

Runway Type Ident Frequency Range Bearing (true/mag) Slope Elevation
18 LOC-LOC ITVL 108.90 MHz 18 nm / 33 km 186.00° / 172.76 ° - 6,264 ft / 1,909 m (AMSL)
18 DME ITVL 108.90 MHz 18 nm / 33 km - - 6,264 ft / 1,909 m (AMSL)

Popular Alternatives